Time;durP1;ratioP1;P1;durP2;ratioP2;P2;SDS_P1;SDS_P2;PMS_P1;PMS_P2;Temp;Humidity;BMP_temperature;BMP_pressure;BME280_temperature;BME280_humidity;BME280_pressure;Samples;Min_cycle;Max_cycle;Signal;HPM_P1;HPM_P2
2023/04/23 06:01:38;;;;;;;;;;;19.80;84.20;;;;;;6261665;22;19966;-72
2023/04/23 06:04:05;;;;;;;;;;;19.80;84.60;;;;;;6244374;23;19908;-72
2023/04/23 06:06:32;;;;;;;;;;;19.80;85.60;;;;;;6217530;22;19915;-72
2023/04/23 06:08:58;;;;;;;;;;;19.80;85.50;;;;;;6244834;23;19958;-72
2023/04/23 06:11:25;;;;;;;;;;;19.80;85.60;;;;;;6244892;23;19907;-72
2023/04/23 06:13:52;;;;;;;;;;;19.80;86.10;;;;;;6238884;23;19907;-73
2023/04/23 06:16:18;;;;;;;;;;;19.80;82.70;;;;;;6240811;22;19907;-72
2023/04/23 06:18:45;;;;;;;;;;;19.80;83.80;;;;;;6241116;23;19911;-72
2023/04/23 06:21:12;;;;;;;;;;;19.80;83.40;;;;;;6240685;23;19907;-72
2023/04/23 06:23:39;;;;;;;;;;;19.90;83.80;;;;;;6240881;23;19961;-72
2023/04/23 06:26:05;;;;;;;;;;;19.90;83.50;;;;;;6240950;23;20394;-72
2023/04/23 06:28:32;;;;;;;;;;;19.90;84.00;;;;;;6240550;22;19935;-72
2023/04/23 06:30:59;;;;;;;;;;;20.00;82.60;;;;;;6240952;23;19908;-71
2023/04/23 06:33:26;;;;;;;;;;;20.00;83.80;;;;;;6241631;23;20279;-71
2023/04/23 06:35:52;;;;;;;;;;;20.00;83.60;;;;;;6241112;23;19993;-71
2023/04/23 06:38:21;;;;;;;;;;;20.00;84.20;;;;;;6240984;22;19915;-71
2023/04/23 06:40:48;;;;;;;;;;;20.00;83.60;;;;;;6238113;23;20331;-71
2023/04/23 06:43:15;;;;;;;;;;;20.00;83.70;;;;;;6241027;23;20213;-72
2023/04/23 06:45:41;;;;;;;;;;;20.00;83.40;;;;;;6240764;23;19915;-71
2023/04/23 06:48:08;;;;;;;;;;;19.90;84.40;;;;;;6239691;22;19916;-71
2023/04/23 06:50:35;;;;;;;;;;;19.90;84.60;;;;;;6241946;23;19912;-71
2023/04/23 06:53:01;;;;;;;;;;;19.90;85.10;;;;;;6243310;23;19916;-72
2023/04/23 06:55:28;;;;;;;;;;;19.80;85.40;;;;;;6241632;23;19911;-72
2023/04/23 06:57:56;;;;;;;;;;;19.90;84.80;;;;;;6243170;22;19904;-72
2023/04/23 07:00:26;;;;;;;;;;;19.80;84.30;;;;;;6215434;23;20678;-71
2023/04/23 08:07:40;;;;;;;;;;;20.00;79.80;;;;;;6241486;22;19925;-71
2023/04/23 08:10:07;;;;;;;;;;;20.00;80.00;;;;;;6241691;23;19912;-71
2023/04/23 08:12:34;;;;;;;;;;;20.00;80.40;;;;;;6237768;23;19914;-71
2023/04/23 08:15:01;;;;;;;;;;;20.00;80.30;;;;;;6241463;23;19914;-71
2023/04/23 08:17:28;;;;;;;;;;;20.00;79.90;;;;;;6215747;23;19986;-71
2023/04/23 08:19:55;;;;;;;;;;;19.90;80.10;;;;;;6214990;23;19914;-71
2023/04/23 08:22:21;;;;;;;;;;;20.00;80.20;;;;;;6241419;23;19915;-72
2023/04/23 08:24:48;;;;;;;;;;;20.00;80.70;;;;;;6241774;23;19931;-72
2023/04/23 08:27:15;;;;;;;;;;;20.00;80.60;;;;;;6241557;22;19954;-72
2023/04/23 08:29:42;;;;;;;;;;;20.00;81.40;;;;;;6241111;23;20239;-72
2023/04/23 08:32:09;;;;;;;;;;;20.00;81.40;;;;;;6242164;23;20275;-72
2023/04/23 08:34:36;;;;;;;;;;;20.00;81.90;;;;;;6241987;23;19911;-72
2023/04/23 08:37:03;;;;;;;;;;;20.00;82.00;;;;;;6241643;22;19908;-72
2023/04/23 08:39:31;;;;;;;;;;;19.90;82.00;;;;;;6241750;23;19915;-72
2023/04/23 08:41:59;;;;;;;;;;;19.90;82.20;;;;;;6215271;23;19943;-72
2023/04/23 08:44:26;;;;;;;;;;;19.90;82.40;;;;;;6215579;23;19912;-73
2023/04/23 08:46:53;;;;;;;;;;;19.80;82.60;;;;;;6241521;22;19915;-71
2023/04/23 08:49:19;;;;;;;;;;;19.90;82.70;;;;;;6189566;23;20967;-74
2023/04/23 08:51:53;;;;;;;;;;;19.90;82.90;;;;;;6214159;23;19908;-70
2023/04/23 08:54:26;;;;;;;;;;;19.90;83.30;;;;;;6241894;23;20239;-69
2023/04/23 08:56:57;;;;;;;;;;;19.80;82.80;;;;;;6212922;23;19907;-72
2023/04/23 08:59:26;;;;;;;;;;;19.80;83.20;;;;;;6241738;23;19910;-72
2023/04/23 09:01:53;;;;;;;;;;;19.90;81.70;;;;;;6241037;23;19908;-70
2023/04/23 09:04:20;;;;;;;;;;;19.90;82.30;;;;;;6215060;23;20334;-77
2023/04/23 09:06:46;;;;;;;;;;;19.90;82.10;;;;;;6229448;22;19919;-74
2023/04/23 09:09:16;;;;;;;;;;;19.90;81.80;;;;;;6242207;22;20375;-80
2023/04/23 09:11:43;;;;;;;;;;;19.90;81.10;;;;;;6237853;23;20346;-74
2023/04/23 09:14:10;;;;;;;;;;;19.90;81.50;;;;;;6241616;22;19910;-73
2023/04/23 09:16:39;;;;;;;;;;;19.90;81.30;;;;;;6239581;22;19927;-73
2023/04/23 09:19:08;;;;;;;;;;;20.00;81.40;;;;;;6242663;22;19908;-71
2023/04/23 09:21:35;;;;;;;;;;;19.90;80.90;;;;;;6239998;23;20242;-71
2023/04/23 09:24:05;;;;;;;;;;;19.90;81.20;;;;;;6241942;22;19914;-72
2023/04/23 09:26:32;;;;;;;;;;;19.90;81.40;;;;;;6242150;22;20059;-72
2023/04/23 09:28:58;;;;;;;;;;;19.90;81.70;;;;;;6242191;22;19912;-72
2023/04/23 09:31:25;;;;;;;;;;;20.00;81.80;;;;;;6241606;22;19916;-73
2023/04/23 09:33:52;;;;;;;;;;;19.90;81.80;;;;;;6240073;23;19930;-72
2023/04/23 09:36:22;;;;;;;;;;;20.00;81.90;;;;;;6241574;22;19954;-72
2023/04/23 09:38:49;;;;;;;;;;;20.00;82.30;;;;;;6242007;22;19956;-71
2023/04/23 09:41:26;;;;;;;;;;;19.90;82.30;;;;;;6240346;23;19907;-72
2023/04/23 09:43:55;;;;;;;;;;;20.00;81.90;;;;;;6241422;22;20220;-72
2023/04/23 09:46:35;;;;;;;;;;;20.00;81.30;;;;;;6240922;22;19912;-75
2023/04/23 09:49:02;;;;;;;;;;;20.00;81.40;;;;;;6214671;23;19954;-73
2023/04/23 09:51:30;;;;;;;;;;;20.00;81.60;;;;;;6241804;22;19914;-73
2023/04/23 09:53:57;;;;;;;;;;;20.10;81.60;;;;;;6241910;22;19908;-72
2023/04/23 09:56:24;;;;;;;;;;;20.10;81.70;;;;;;6240611;22;19957;-74
2023/04/23 09:58:51;;;;;;;;;;;20.10;81.70;;;;;;6241762;22;20247;-73
2023/04/23 10:01:18;;;;;;;;;;;20.00;82.50;;;;;;6241651;22;19912;-71
2023/04/23 10:03:45;;;;;;;;;;;20.00;84.90;;;;;;6239830;23;19907;-72
2023/04/23 10:06:15;;;;;;;;;;;19.90;87.70;;;;;;6241492;22;19919;-74
2023/04/23 10:08:45;;;;;;;;;;;19.60;89.70;;;;;;6215134;23;20626;-72
2023/04/23 10:11:11;;;;;;;;;;;19.30;91.00;;;;;;6214862;23;20041;-72
2023/04/23 10:13:38;;;;;;;;;;;19.10;91.80;;;;;;6238779;23;19912;-72
2023/04/23 10:16:05;;;;;;;;;;;19.00;92.20;;;;;;6241535;23;19907;-71
2023/04/23 10:18:32;;;;;;;;;;;18.90;92.50;;;;;;6214459;23;19915;-78
2023/04/23 10:20:58;;;;;;;;;;;18.80;92.80;;;;;;6240905;23;19904;-75
2023/04/23 10:23:26;;;;;;;;;;;18.80;92.80;;;;;;6214795;23;19966;-74
2023/04/23 10:25:52;;;;;;;;;;;18.80;93.20;;;;;;6243070;23;20353;-76
2023/04/23 10:28:25;;;;;;;;;;;18.80;93.30;;;;;;6217035;23;19912;-74
2023/04/23 10:30:52;;;;;;;;;;;18.80;93.10;;;;;;6217921;23;19915;-73
2023/04/23 10:33:20;;;;;;;;;;;18.70;93.40;;;;;;6216797;23;19958;-73
2023/04/23 10:35:46;;;;;;;;;;;18.70;93.10;;;;;;6216842;23;20357;-76
2023/04/23 10:38:13;;;;;;;;;;;18.80;92.50;;;;;;6216681;23;19942;-76
2023/04/23 10:40:40;;;;;;;;;;;18.80;92.20;;;;;;6216638;23;20350;-74
2023/04/23 10:43:07;;;;;;;;;;;18.80;91.50;;;;;;6216540;23;19978;-74
2023/04/23 10:45:33;;;;;;;;;;;18.80;91.80;;;;;;6216699;23;19986;-75
2023/04/23 10:48:00;;;;;;;;;;;18.90;90.60;;;;;;6242391;22;19942;-74
2023/04/23 10:50:28;;;;;;;;;;;19.00;91.20;;;;;;6216525;23;20014;-74
2023/04/23 10:52:55;;;;;;;;;;;19.00;90.70;;;;;;6243287;23;19911;-74
2023/04/23 10:55:23;;;;;;;;;;;19.00;90.80;;;;;;6243355;23;19904;-75
2023/04/23 10:58:10;;;;;;;;;;;19.10;90.80;;;;;;6242779;22;20307;-72
2023/04/23 11:00:43;;;;;;;;;;;19.10;90.30;;;;;;6241284;23;19908;-71
2023/04/23 11:03:29;;;;;;;;;;;19.20;90.20;;;;;;6241345;23;19908;-75
2023/04/23 11:05:55;;;;;;;;;;;19.20;90.30;;;;;;6242350;22;19982;-77
2023/04/23 11:08:22;;;;;;;;;;;19.20;90.30;;;;;;6242467;22;19915;-77
2023/04/23 11:10:58;;;;;;;;;;;19.20;90.10;;;;;;6243134;23;19961;-77
2023/04/23 11:13:25;;;;;;;;;;;19.20;89.60;;;;;;6239315;23;19907;-77
2023/04/23 11:16:18;;;;;;;;;;;19.20;89.70;;;;;;6243007;23;19947;-77
2023/04/23 11:18:54;;;;;;;;;;;19.20;90.10;;;;;;6235909;23;20327;-76
2023/04/23 11:21:21;;;;;;;;;;;19.20;90.00;;;;;;6242363;23;19911;-76
2023/04/23 11:23:48;;;;;;;;;;;19.20;89.10;;;;;;6216116;23;19987;-76
2023/04/23 11:26:16;;;;;;;;;;;19.20;88.80;;;;;;6242599;22;19919;-76
2023/04/23 11:28:42;;;;;;;;;;;19.20;89.50;;;;;;6215789;23;19986;-75
2023/04/23 11:31:09;;;;;;;;;;;19.30;90.00;;;;;;6216203;23;19907;-72
2023/04/23 11:33:36;;;;;;;;;;;19.20;89.80;;;;;;6242499;23;20290;-72
2023/04/23 11:36:03;;;;;;;;;;;19.20;89.70;;;;;;6242018;23;19978;-74
2023/04/23 11:38:33;;;;;;;;;;;19.20;90.10;;;;;;6243022;22;19903;-77
2023/04/23 11:41:04;;;;;;;;;;;19.20;89.60;;;;;;6216047;23;19912;-77
2023/04/23 11:43:30;;;;;;;;;;;19.20;89.70;;;;;;6242946;23;20273;-76
2023/04/23 11:45:58;;;;;;;;;;;19.30;89.50;;;;;;6243282;23;20006;-76
2023/04/23 11:48:25;;;;;;;;;;;19.20;89.40;;;;;;6239310;22;19914;-74
2023/04/23 11:50:52;;;;;;;;;;;19.30;88.70;;;;;;6241492;23;19982;-75
2023/04/23 11:53:19;;;;;;;;;;;19.30;88.70;;;;;;6242173;23;19970;-70
2023/04/23 11:55:48;;;;;;;;;;;19.30;88.30;;;;;;6215602;23;19908;-72
2023/04/23 11:58:17;;;;;;;;;;;19.30;88.50;;;;;;6244248;22;19931;-71
2023/04/23 12:00:44;;;;;;;;;;;19.30;87.50;;;;;;6245636;23;19904;-71
2023/04/23 12:03:12;;;;;;;;;;;19.30;87.70;;;;;;6245556;23;20275;-71
2023/04/23 12:05:40;;;;;;;;;;;19.30;87.70;;;;;;6245460;22;19986;-71
2023/04/23 12:08:08;;;;;;;;;;;19.30;87.50;;;;;;6245079;22;19908;-71
2023/04/23 12:10:55;;;;;;;;;;;19.30;88.00;;;;;;6245931;23;19908;-71
2023/04/23 12:13:26;;;;;;;;;;;19.30;87.90;;;;;;6245203;23;20331;-71
2023/04/23 12:15:57;;;;;;;;;;;19.30;87.70;;;;;;6219465;23;19914;-71
2023/04/23 12:18:43;;;;;;;;;;;19.30;87.20;;;;;;6245168;22;19904;-71
2023/04/23 12:21:10;;;;;;;;;;;19.30;87.00;;;;;;6246134;23;20045;-71
2023/04/23 12:23:38;;;;;;;;;;;19.30;85.60;;;;;;6245500;23;19914;-71
2023/04/23 12:26:05;;;;;;;;;;;19.30;86.20;;;;;;6245396;23;19908;-71
2023/04/23 12:28:32;;;;;;;;;;;19.30;85.30;;;;;;6218963;23;20338;-71
2023/04/23 12:31:02;;;;;;;;;;;19.30;85.10;;;;;;6245645;23;20342;-71
2023/04/23 12:33:29;;;;;;;;;;;19.30;84.70;;;;;;6219316;23;19977;-71
2023/04/23 12:35:56;;;;;;;;;;;19.40;83.90;;;;;;6245302;23;19911;-71
2023/04/23 12:38:29;;;;;;;;;;;19.40;83.50;;;;;;6245883;22;19910;-71
2023/04/23 12:40:57;;;;;;;;;;;19.50;82.30;;;;;;6246059;23;19908;-70
2023/04/23 12:43:24;;;;;;;;;;;19.60;82.60;;;;;;6245454;23;20212;-71
2023/04/23 12:45:51;;;;;;;;;;;19.60;82.00;;;;;;6245370;23;19994;-71
2023/04/23 12:48:17;;;;;;;;;;;19.60;82.10;;;;;;6218217;23;19914;-70
2023/04/23 12:50:45;;;;;;;;;;;19.60;80.60;;;;;;6245391;23;19980;-71
2023/04/23 12:53:12;;;;;;;;;;;19.70;81.60;;;;;;6218613;23;19978;-71
2023/04/23 12:55:38;;;;;;;;;;;19.60;81.90;;;;;;6245000;23;19904;-71
2023/04/23 12:58:05;;;;;;;;;;;19.60;81.70;;;;;;6244904;22;19910;-71
2023/04/23 13:00:32;;;;;;;;;;;19.50;81.50;;;;;;6245329;23;19926;-71
2023/04/23 13:02:59;;;;;;;;;;;19.50;81.50;;;;;;6218691;23;20388;-71
2023/04/23 13:05:25;;;;;;;;;;;19.50;81.90;;;;;;6218493;22;19912;-71
2023/04/23 13:07:52;;;;;;;;;;;19.50;80.70;;;;;;6245115;22;19923;-71
2023/04/23 13:10:19;;;;;;;;;;;19.60;81.00;;;;;;6244982;23;19961;-71
2023/04/23 13:12:46;;;;;;;;;;;19.60;80.30;;;;;;6245498;23;19911;-71
2023/04/23 13:15:12;;;;;;;;;;;19.60;80.90;;;;;;6245379;23;19950;-71
2023/04/23 13:17:40;;;;;;;;;;;19.50;80.90;;;;;;6244894;22;19982;-71
2023/04/23 13:20:07;;;;;;;;;;;19.60;81.10;;;;;;6193266;23;19914;-71
2023/04/23 13:22:34;;;;;;;;;;;19.60;81.30;;;;;;6218897;23;19904;-71
2023/04/23 13:25:01;;;;;;;;;;;19.70;81.40;;;;;;6218645;23;19904;-71
2023/04/23 13:27:28;;;;;;;;;;;19.60;81.40;;;;;;6244778;22;19915;-71
2023/04/23 13:29:55;;;;;;;;;;;19.60;81.10;;;;;;6245365;23;19910;-71
2023/04/23 13:32:27;;;;;;;;;;;19.70;81.50;;;;;;6245275;23;20344;-71
2023/04/23 13:34:53;;;;;;;;;;;19.60;81.30;;;;;;6219787;23;20231;-71
2023/04/23 13:37:20;;;;;;;;;;;19.70;81.20;;;;;;6244999;22;19912;-71
2023/04/23 13:39:47;;;;;;;;;;;19.70;80.70;;;;;;6244848;23;20304;-71
2023/04/23 13:42:14;;;;;;;;;;;19.70;80.00;;;;;;6218358;23;19904;-71
2023/04/23 13:44:41;;;;;;;;;;;19.70;81.20;;;;;;6245231;23;19903;-71
2023/04/23 13:47:08;;;;;;;;;;;19.70;80.00;;;;;;6244844;22;19915;-71
2023/04/23 13:49:34;;;;;;;;;;;19.70;79.60;;;;;;6245059;23;19910;-71
2023/04/23 13:52:05;;;;;;;;;;;19.70;80.20;;;;;;6244467;23;19910;-71
2023/04/23 13:54:32;;;;;;;;;;;19.70;80.40;;;;;;6245120;23;20377;-71
2023/04/23 13:56:59;;;;;;;;;;;19.70;80.30;;;;;;6245125;22;19904;-71
2023/04/23 13:59:26;;;;;;;;;;;19.70;80.80;;;;;;6246420;23;19908;-71
2023/04/23 14:01:53;;;;;;;;;;;19.60;80.40;;;;;;6246599;23;19908;-71
2023/04/23 14:04:22;;;;;;;;;;;19.60;80.00;;;;;;6246964;23;19915;-71
2023/04/23 14:06:49;;;;;;;;;;;19.60;80.60;;;;;;6234564;22;19939;-71
2023/04/23 14:09:17;;;;;;;;;;;19.60;80.40;;;;;;6245668;23;19936;-71
2023/04/23 14:11:44;;;;;;;;;;;19.60;80.50;;;;;;6247160;22;19965;-71
2023/04/23 14:14:11;;;;;;;;;;;19.60;80.00;;;;;;6245562;23;19911;-70
2023/04/23 14:16:37;;;;;;;;;;;19.60;80.00;;;;;;6246779;22;19904;-71
2023/04/23 14:19:04;;;;;;;;;;;19.70;79.50;;;;;;6247183;22;19930;-71
2023/04/23 14:21:31;;;;;;;;;;;19.70;80.00;;;;;;6245246;23;20322;-71
2023/04/23 14:24:02;;;;;;;;;;;19.70;79.80;;;;;;6247133;22;19907;-71
2023/04/23 14:26:31;;;;;;;;;;;19.70;79.70;;;;;;6246671;22;19921;-71
2023/04/23 14:29:02;;;;;;;;;;;19.70;79.80;;;;;;6246656;22;19914;-71
2023/04/23 14:31:32;;;;;;;;;;;19.70;79.40;;;;;;6246684;22;19907;-71
2023/04/23 14:33:59;;;;;;;;;;;19.70;79.80;;;;;;6246979;22;19983;-71
2023/04/23 14:36:26;;;;;;;;;;;19.70;79.60;;;;;;6246653;22;20384;-71
2023/04/23 14:38:53;;;;;;;;;;;19.70;78.50;;;;;;6246824;22;19900;-71
2023/04/23 14:41:19;;;;;;;;;;;19.70;79.10;;;;;;6247097;22;19923;-71
2023/04/23 14:43:46;;;;;;;;;;;19.70;78.80;;;;;;6246628;22;19911;-71
2023/04/23 14:46:13;;;;;;;;;;;19.70;79.10;;;;;;6246466;22;19911;-71
2023/04/23 14:48:39;;;;;;;;;;;19.70;79.20;;;;;;6246671;22;19959;-72
2023/04/23 14:51:06;;;;;;;;;;;19.70;79.10;;;;;;6246845;22;19904;-71
2023/04/23 14:53:33;;;;;;;;;;;19.70;78.90;;;;;;6246200;22;19934;-71
2023/04/23 14:56:00;;;;;;;;;;;19.70;78.90;;;;;;6247142;22;19982;-71
2023/04/23 14:58:26;;;;;;;;;;;19.60;78.80;;;;;;6246293;22;19939;-71
2023/04/23 15:00:53;;;;;;;;;;;19.70;78.90;;;;;;6246251;22;19986;-71
2023/04/23 15:03:20;;;;;;;;;;;19.60;78.70;;;;;;6246707;22;19910;-71
2023/04/23 15:05:46;;;;;;;;;;;19.60;77.90;;;;;;6246161;22;19916;-71
2023/04/23 15:08:13;;;;;;;;;;;19.70;78.60;;;;;;6219886;23;19903;-71
2023/04/23 15:10:40;;;;;;;;;;;19.60;78.60;;;;;;6219413;23;19904;-71
2023/04/23 15:13:12;;;;;;;;;;;19.50;77.80;;;;;;6246090;23;19904;-71
2023/04/23 15:15:49;;;;;;;;;;;19.50;77.20;;;;;;6246433;23;19950;-71
2023/04/23 15:18:16;;;;;;;;;;;19.60;76.90;;;;;;6246023;22;19908;-71
2023/04/23 15:20:43;;;;;;;;;;;19.60;77.20;;;;;;6246510;23;19908;-71
2023/04/23 15:23:10;;;;;;;;;;;19.50;77.90;;;;;;6246606;23;19990;-71
2023/04/23 15:25:38;;;;;;;;;;;19.50;77.20;;;;;;6219501;23;19995;-71
2023/04/23 15:28:04;;;;;;;;;;;19.50;77.80;;;;;;6246151;22;20303;-71
2023/04/23 15:30:31;;;;;;;;;;;19.60;77.70;;;;;;6219517;23;20330;-71
2023/04/23 15:32:58;;;;;;;;;;;19.50;77.00;;;;;;6245940;23;19911;-71
2023/04/23 15:35:25;;;;;;;;;;;19.60;77.00;;;;;;6246483;23;19904;-71
2023/04/23 15:37:52;;;;;;;;;;;19.60;77.50;;;;;;6246255;22;19904;-71
2023/04/23 15:40:19;;;;;;;;;;;19.60;77.40;;;;;;6245974;23;19927;-71
2023/04/23 15:42:46;;;;;;;;;;;19.50;77.10;;;;;;6246126;23;20327;-71
2023/04/23 15:45:13;;;;;;;;;;;19.60;77.60;;;;;;6246234;23;19991;-72
2023/04/23 15:47:40;;;;;;;;;;;19.60;77.30;;;;;;6245989;22;20279;-73
2023/04/23 15:50:08;;;;;;;;;;;19.60;78.10;;;;;;6246271;23;20341;-70
2023/04/23 15:52:34;;;;;;;;;;;19.50;77.30;;;;;;6246134;23;19961;-71
2023/04/23 15:55:01;;;;;;;;;;;19.60;77.00;;;;;;6246353;23;19927;-71
2023/04/23 15:57:28;;;;;;;;;;;19.50;77.40;;;;;;6246102;22;19950;-71
2023/04/23 15:59:54;;;;;;;;;;;19.50;76.50;;;;;;6246290;23;20235;-71
2023/04/23 16:02:21;;;;;;;;;;;19.50;76.70;;;;;;6246223;23;20006;-71
2023/04/23 16:04:51;;;;;;;;;;;19.50;76.80;;;;;;6219512;23;19903;-71
2023/04/23 16:07:18;;;;;;;;;;;19.50;77.30;;;;;;6245294;22;19938;-71
2023/04/23 16:09:45;;;;;;;;;;;19.50;77.10;;;;;;6194216;23;19923;-71
2023/04/23 16:12:12;;;;;;;;;;;19.50;76.80;;;;;;6245811;23;19904;-71
2023/04/23 16:14:39;;;;;;;;;;;19.50;76.40;;;;;;6245555;23;19986;-71
2023/04/23 16:17:05;;;;;;;;;;;19.50;77.10;;;;;;6245375;22;19962;-71
2023/04/23 16:19:32;;;;;;;;;;;19.50;77.00;;;;;;6246292;23;19943;-71
2023/04/23 16:21:59;;;;;;;;;;;19.40;77.10;;;;;;6245592;23;19908;-71
2023/04/23 16:24:25;;;;;;;;;;;19.40;77.30;;;;;;6245845;23;19915;-71
2023/04/23 16:26:52;;;;;;;;;;;19.40;77.10;;;;;;6245546;22;19912;-71
2023/04/23 16:29:19;;;;;;;;;;;19.40;77.10;;;;;;6245848;23;20230;-71
2023/04/23 16:31:46;;;;;;;;;;;19.40;76.80;;;;;;6246086;23;19931;-71
2023/04/23 16:34:12;;;;;;;;;;;19.30;77.10;;;;;;6245665;23;19904;-71
2023/04/23 16:36:39;;;;;;;;;;;19.30;76.60;;;;;;6245394;22;19903;-72
2023/04/23 16:39:06;;;;;;;;;;;19.30;76.60;;;;;;6245459;23;19910;-72
2023/04/23 16:41:32;;;;;;;;;;;19.30;76.20;;;;;;6218892;23;19987;-71
2023/04/23 16:43:59;;;;;;;;;;;19.30;76.40;;;;;;6245588;23;20339;-71
2023/04/23 16:46:28;;;;;;;;;;;19.30;76.40;;;;;;6245152;22;19950;-71
2023/04/23 16:48:56;;;;;;;;;;;19.30;77.00;;;;;;6245470;23;20250;-71
2023/04/23 16:51:23;;;;;;;;;;;19.30;76.80;;;;;;6219149;23;19982;-71
2023/04/23 16:53:50;;;;;;;;;;;19.30;77.10;;;;;;6245973;23;19966;-71
2023/04/23 16:56:16;;;;;;;;;;;19.30;77.00;;;;;;6246009;22;19910;-71
2023/04/23 16:58:43;;;;;;;;;;;19.30;77.10;;;;;;6245135;23;19903;-71
2023/04/23 17:01:10;;;;;;;;;;;19.30;77.10;;;;;;6245558;23;19957;-71
2023/04/23 17:03:37;;;;;;;;;;;19.30;77.70;;;;;;6245659;23;19994;-71
2023/04/23 17:06:09;;;;;;;;;;;19.20;77.90;;;;;;6245005;22;19916;-71
2023/04/23 17:08:38;;;;;;;;;;;19.30;77.80;;;;;;6245561;22;19911;-71
2023/04/23 17:11:05;;;;;;;;;;;19.30;78.00;;;;;;6245688;23;19903;-70
2023/04/23 17:13:33;;;;;;;;;;;19.30;78.60;;;;;;6245215;23;19908;-71
2023/04/23 17:16:00;;;;;;;;;;;19.30;79.00;;;;;;6244737;23;19903;-71
2023/04/23 17:18:27;;;;;;;;;;;19.20;78.80;;;;;;6245257;22;19904;-71
2023/04/23 17:20:54;;;;;;;;;;;19.20;78.60;;;;;;6245521;23;19903;-71
2023/04/23 17:23:20;;;;;;;;;;;19.20;78.90;;;;;;6218449;23;19903;-71
2023/04/23 17:25:47;;;;;;;;;;;19.30;79.40;;;;;;6244912;23;19908;-71
2023/04/23 17:28:14;;;;;;;;;;;19.20;80.10;;;;;;6245017;22;19904;-72
2023/04/23 17:30:42;;;;;;;;;;;19.10;81.00;;;;;;6245093;23;19911;-72
2023/04/23 17:33:09;;;;;;;;;;;19.10;81.90;;;;;;6244338;23;19904;-72
2023/04/23 17:35:35;;;;;;;;;;;19.10;81.70;;;;;;6245126;23;20409;-71
2023/04/23 17:38:02;;;;;;;;;;;19.10;81.70;;;;;;6245354;22;19904;-71
2023/04/23 17:40:29;;;;;;;;;;;19.00;80.90;;;;;;6218770;23;19915;-71
2023/04/23 17:42:56;;;;;;;;;;;19.10;81.60;;;;;;6244425;23;19907;-72
2023/04/23 17:45:22;;;;;;;;;;;19.10;81.40;;;;;;6245064;23;19903;-71
2023/04/23 17:47:49;;;;;;;;;;;19.10;81.00;;;;;;6244956;22;19966;-71
2023/04/23 17:50:16;;;;;;;;;;;19.10;80.60;;;;;;6244767;23;19904;-71
2023/04/23 17:52:43;;;;;;;;;;;19.10;80.90;;;;;;6245090;23;20281;-72
2023/04/23 17:55:10;;;;;;;;;;;19.10;80.60;;;;;;6245714;23;20289;-72
2023/04/23 17:57:37;;;;;;;;;;;19.10;80.70;;;;;;6218565;23;19983;-71
2023/04/23 18:00:08;;;;;;;;;;;19.10;80.20;;;;;;6245051;23;19908;-71
2023/04/23 18:02:38;;;;;;;;;;;19.10;80.20;;;;;;6244998;23;19904;-71
2023/04/23 18:05:07;;;;;;;;;;;19.10;80.40;;;;;;6218871;23;19986;-71
2023/04/23 18:07:34;;;;;;;;;;;19.10;80.40;;;;;;6244863;22;19920;-71
2023/04/23 18:10:00;;;;;;;;;;;19.10;79.70;;;;;;6244719;23;19931;-71
2023/04/23 18:12:28;;;;;;;;;;;19.10;80.10;;;;;;6218240;23;20255;-71
2023/04/23 18:14:55;;;;;;;;;;;19.10;79.40;;;;;;6245000;23;19904;-71
2023/04/23 18:17:21;;;;;;;;;;;19.10;79.90;;;;;;6218573;23;20392;-72
2023/04/23 18:19:48;;;;;;;;;;;19.10;78.70;;;;;;6245176;23;19907;-71
2023/04/23 18:22:15;;;;;;;;;;;19.20;78.90;;;;;;6244926;23;19910;-71
2023/04/23 18:24:42;;;;;;;;;;;19.20;79.30;;;;;;6245182;23;19904;-71
2023/04/23 18:27:08;;;;;;;;;;;19.20;79.20;;;;;;6244472;22;19919;-71
2023/04/23 18:29:35;;;;;;;;;;;19.20;79.20;;;;;;6244929;23;19903;-71
2023/04/23 18:32:03;;;;;;;;;;;19.10;79.40;;;;;;6244551;23;19974;-71
2023/04/23 18:34:31;;;;;;;;;;;19.20;80.00;;;;;;6245360;23;19915;-71
2023/04/23 18:37:02;;;;;;;;;;;19.20;79.90;;;;;;6244883;22;20379;-71
2023/04/23 18:39:29;;;;;;;;;;;19.20;80.20;;;;;;6244921;23;20238;-71
2023/04/23 18:41:55;;;;;;;;;;;19.20;79.80;;;;;;6244689;23;20329;-71
2023/04/23 18:44:22;;;;;;;;;;;19.20;80.00;;;;;;6244701;23;19910;-72
2023/04/23 18:46:49;;;;;;;;;;;19.20;80.10;;;;;;6246589;22;19914;-71
2023/04/23 18:49:16;;;;;;;;;;;19.20;80.00;;;;;;6247151;23;19982;-71
2023/04/23 18:51:43;;;;;;;;;;;19.10;80.00;;;;;;6246808;23;19982;-71
2023/04/23 18:54:13;;;;;;;;;;;19.20;79.60;;;;;;6246440;23;20236;-71
2023/04/23 18:56:40;;;;;;;;;;;19.20;79.40;;;;;;6246627;22;20030;-71
2023/04/23 18:59:07;;;;;;;;;;;19.20;79.30;;;;;;6219991;23;20334;-71
2023/04/23 19:01:34;;;;;;;;;;;19.20;79.30;;;;;;6246458;23;19965;-71
2023/04/23 19:04:00;;;;;;;;;;;19.20;78.80;;;;;;6219721;23;19912;-72
2023/04/23 19:06:27;;;;;;;;;;;19.20;77.10;;;;;;6243536;22;20314;-73
2023/04/23 19:08:54;;;;;;;;;;;19.20;77.80;;;;;;6246245;23;19907;-71
2023/04/23 19:11:21;;;;;;;;;;;19.20;78.00;;;;;;6219645;23;19904;-71
2023/04/23 19:13:48;;;;;;;;;;;19.20;77.10;;;;;;6246165;23;19915;-72
2023/04/23 19:16:16;;;;;;;;;;;19.30;77.60;;;;;;6219328;22;19911;-74
2023/04/23 19:18:43;;;;;;;;;;;19.30;77.40;;;;;;6194348;23;19910;-73
2023/04/23 19:21:10;;;;;;;;;;;19.30;77.70;;;;;;6245585;23;19904;-72
2023/04/23 19:23:37;;;;;;;;;;;19.30;78.10;;;;;;6245491;23;20323;-73
2023/04/23 19:26:04;;;;;;;;;;;19.30;78.40;;;;;;6219327;23;20231;-73
2023/04/23 19:28:31;;;;;;;;;;;19.30;78.30;;;;;;6245728;22;19935;-72
2023/04/23 19:30:57;;;;;;;;;;;19.30;78.10;;;;;;6218579;23;19918;-72
2023/04/23 19:33:24;;;;;;;;;;;19.30;78.60;;;;;;6218451;23;19907;-72
2023/04/23 19:35:51;;;;;;;;;;;19.20;78.10;;;;;;6245586;23;19911;-74
2023/04/23 19:38:18;;;;;;;;;;;19.30;78.50;;;;;;6245776;22;19911;-75
2023/04/23 19:40:45;;;;;;;;;;;19.30;78.60;;;;;;6245119;23;19950;-75
2023/04/23 19:43:12;;;;;;;;;;;19.20;78.30;;;;;;6245582;23;20281;-75
2023/04/23 19:45:39;;;;;;;;;;;19.20;77.50;;;;;;6245203;23;19908;-76
2023/04/23 19:48:06;;;;;;;;;;;19.20;77.20;;;;;;6245449;22;19922;-77
2023/04/23 19:50:33;;;;;;;;;;;19.20;77.80;;;;;;6245881;23;19926;-75
2023/04/23 19:53:00;;;;;;;;;;;19.20;77.60;;;;;;6218755;23;19907;-75
2023/04/23 19:55:27;;;;;;;;;;;19.20;77.10;;;;;;6244784;23;19903;-75
2023/04/23 19:57:54;;;;;;;;;;;19.20;77.40;;;;;;6244991;22;19911;-75
2023/04/23 20:00:24;;;;;;;;;;;19.20;77.20;;;;;;6245670;23;19911;-70
2023/04/23 20:02:54;;;;;;;;;;;19.20;77.50;;;;;;6194448;23;19974;-70
2023/04/23 20:05:21;;;;;;;;;;;19.20;78.00;;;;;;6219413;22;19938;-70
2023/04/23 20:07:48;;;;;;;;;;;19.20;78.30;;;;;;6244454;22;20300;-70
2023/04/23 20:10:14;;;;;;;;;;;19.20;78.50;;;;;;6243864;23;19904;-70
2023/04/23 20:12:41;;;;;;;;;;;19.20;78.80;;;;;;6244769;23;19908;-70
2023/04/23 20:15:11;;;;;;;;;;;19.20;78.60;;;;;;6245539;23;19908;-70
2023/04/23 20:17:38;;;;;;;;;;;19.20;78.90;;;;;;6245197;22;19907;-72
2023/04/23 20:20:05;;;;;;;;;;;19.20;78.90;;;;;;6245116;23;19904;-71
2023/04/23 20:22:32;;;;;;;;;;;19.20;78.70;;;;;;6218333;23;20354;-71
2023/04/23 20:25:00;;;;;;;;;;;19.20;79.10;;;;;;6245580;23;19986;-72
2023/04/23 20:27:27;;;;;;;;;;;19.20;78.90;;;;;;6245082;22;19954;-73
2023/04/23 20:29:54;;;;;;;;;;;19.20;78.30;;;;;;6241484;23;20231;-75
2023/04/23 20:32:20;;;;;;;;;;;19.20;78.50;;;;;;6215287;23;19908;-72
2023/04/23 20:34:47;;;;;;;;;;;19.10;77.20;;;;;;6241653;23;20243;-71
2023/04/23 20:37:14;;;;;;;;;;;19.20;77.50;;;;;;6241679;22;19904;-71
2023/04/23 20:39:41;;;;;;;;;;;19.20;77.00;;;;;;6241378;23;20242;-71
2023/04/23 20:42:08;;;;;;;;;;;19.10;76.50;;;;;;6215284;23;19911;-71
2023/04/23 20:44:35;;;;;;;;;;;19.10;76.50;;;;;;6239677;23;19907;-70
2023/04/23 20:47:07;;;;;;;;;;;19.10;76.30;;;;;;6241942;22;20354;-70
2023/04/23 20:49:33;;;;;;;;;;;19.20;76.10;;;;;;6242730;23;19908;-70
2023/04/23 20:52:00;;;;;;;;;;;19.10;76.20;;;;;;6241910;23;20335;-70
2023/04/23 20:54:27;;;;;;;;;;;19.10;76.00;;;;;;6241466;23;19915;-72
2023/04/23 20:56:53;;;;;;;;;;;19.10;76.10;;;;;;6241804;22;19904;-71
2023/04/23 20:59:20;;;;;;;;;;;19.10;75.70;;;;;;6240700;23;19915;-71
2023/04/23 21:01:47;;;;;;;;;;;19.10;75.40;;;;;;6240807;23;20022;-73
2023/04/23 21:04:14;;;;;;;;;;;19.20;76.10;;;;;;6241502;23;20230;-71
2023/04/23 21:06:42;;;;;;;;;;;19.10;76.60;;;;;;6227917;22;19919;-72
2023/04/23 21:09:10;;;;;;;;;;;19.10;77.50;;;;;;6241328;22;19983;-72
2023/04/23 21:11:36;;;;;;;;;;;19.10;78.50;;;;;;6240885;22;20282;-71
2023/04/23 21:14:07;;;;;;;;;;;19.10;76.70;;;;;;6240150;23;19953;-71
2023/04/23 21:16:36;;;;;;;;;;;19.10;76.30;;;;;;6240189;22;20555;-71
2023/04/23 21:19:03;;;;;;;;;;;19.10;76.30;;;;;;6240028;23;19918;-71
2023/04/23 21:21:31;;;;;;;;;;;19.10;76.50;;;;;;6241961;22;20353;-72
2023/04/23 21:24:01;;;;;;;;;;;19.20;76.00;;;;;;6240423;22;19911;-72